Time;durP1;ratioP1;P1;durP2;ratioP2;P2;SDS_P1;SDS_P2;PMS_P1;PMS_P2;Temp;Humidity;BMP_temperature;BMP_pressure;BME280_temperature;BME280_humidity;BME280_pressure;Samples;Min_cycle;Max_cycle;Signal;HPM_P1;HPM_P2
2023/01/28 00:01:26;;;;;;;15.95;11.13;;;;;;;8.11;53.57;102795.06;6180157;23;20039;-69
2023/01/28 00:03:53;;;;;;;13.13;10.55;;;;;;;8.10;53.53;102794.19;6179740;23;20382;-69
2023/01/28 00:06:20;;;;;;;13.07;10.18;;;;;;;8.07;53.53;102790.72;6181284;23;20017;-69
2023/01/28 00:08:47;;;;;;;11.73;9.98;;;;;;;8.05;53.49;102801.47;6182029;23;20482;-68
2023/01/28 00:11:14;;;;;;;12.98;10.70;;;;;;;8.05;53.60;102793.44;6182102;23;20013;-67
2023/01/28 00:13:41;;;;;;;13.07;10.70;;;;;;;8.09;53.65;102796.91;6181879;23;20058;-68
2023/01/28 00:16:08;;;;;;;14.20;10.95;;;;;;;8.12;53.68;102802.16;6155633;23;20040;-68
2023/01/28 00:18:36;;;;;;;14.00;10.43;;;;;;;8.14;53.51;102809.22;6180604;22;20347;-68
2023/01/28 00:21:07;;;;;;;11.93;10.13;;;;;;;8.11;53.59;102803.09;6179834;23;20443;-68
2023/01/28 00:23:36;;;;;;;12.70;9.65;;;;;;;8.10;53.60;102801.31;6180538;22;20078;-69
2023/01/28 00:26:06;;;;;;;12.93;9.90;;;;;;;8.07;53.39;102807.66;6181851;23;20309;-69
2023/01/28 00:28:33;;;;;;;13.07;9.95;;;;;;;8.06;53.45;102794.31;6155314;23;20451;-67
2023/01/28 00:31:29;;;;;;;12.45;9.60;;;;;;;8.03;53.40;102800.63;6155551;23;20014;-68
2023/01/28 00:33:56;;;;;;;14.25;10.52;;;;;;;8.05;53.46;102797.91;6181158;23;20025;-69
2023/01/28 00:36:25;;;;;;;13.32;10.43;;;;;;;8.04;53.31;102802.38;6182035;23;20514;-68
2023/01/28 00:38:54;;;;;;;14.02;9.90;;;;;;;8.04;53.44;102805.06;6154723;22;20036;-69
2023/01/28 00:41:23;;;;;;;14.65;10.57;;;;;;;8.01;53.32;102806.94;6181473;23;20067;-69
2023/01/28 00:43:51;;;;;;;12.27;9.65;;;;;;;7.95;53.30;102811.56;6181912;23;20021;-68
2023/01/28 00:46:19;;;;;;;13.05;9.75;;;;;;;7.94;53.22;102812.47;6181783;23;20037;-68
2023/01/28 00:48:47;;;;;;;13.40;10.07;;;;;;;7.92;53.31;102816.13;6182115;23;20013;-69
2023/01/28 00:51:17;;;;;;;12.80;10.27;;;;;;;7.90;53.33;102818.84;6181996;23;20013;-69
2023/01/28 00:53:43;;;;;;;12.65;9.90;;;;;;;7.88;53.12;102822.47;6155683;23;20020;-68
2023/01/28 00:56:16;;;;;;;14.32;9.90;;;;;;;7.86;53.18;102813.63;6181332;23;20017;-68
2023/01/28 00:58:43;;;;;;;13.88;9.85;;;;;;;7.87;53.21;102829.63;6181446;23;20018;-67
2023/01/28 01:01:16;;;;;;;14.90;10.77;;;;;;;7.86;53.15;102830.56;6179709;23;20013;-69
2023/01/28 01:03:43;;;;;;;13.70;10.23;;;;;;;7.84;53.20;102819.00;6153304;23;20071;-69
2023/01/28 01:06:12;;;;;;;13.13;9.95;;;;;;;7.83;53.24;102824.41;6154727;23;20436;-68
2023/01/28 01:08:41;;;;;;;13.50;9.63;;;;;;;7.82;53.19;102814.63;6181516;23;20344;-68
2023/01/28 01:11:10;;;;;;;14.10;10.38;;;;;;;7.82;53.27;102820.84;6181755;23;20122;-69
2023/01/28 01:13:37;;;;;;;13.38;9.93;;;;;;;7.80;53.13;102812.00;6181467;23;20096;-68
2023/01/28 01:16:09;;;;;;;13.35;10.23;;;;;;;7.78;53.04;102805.81;6155125;23;20028;-67
2023/01/28 01:18:41;;;;;;;17.02;11.52;;;;;;;7.74;52.98;102808.63;6181686;23;20027;-68
2023/01/28 01:21:13;;;;;;;14.57;10.77;;;;;;;7.71;52.97;102820.28;6182123;22;20052;-68
2023/01/28 01:23:40;;;;;;;13.43;10.18;;;;;;;7.71;52.84;102820.28;6188828;23;20021;-68
2023/01/28 01:26:07;;;;;;;13.73;11.05;;;;;;;7.71;52.97;102822.06;6183938;23;20013;-68
2023/01/28 01:28:34;;;;;;;15.30;11.52;;;;;;;7.70;53.13;102820.31;6181336;23;20078;-69
2023/01/28 01:31:03;;;;;;;14.32;11.15;;;;;;;7.68;52.81;102817.69;6153899;22;20013;-68
2023/01/28 01:33:32;;;;;;;16.40;11.75;;;;;;;7.67;52.90;102820.41;6180778;23;20060;-68
2023/01/28 01:35:59;;;;;;;15.05;11.00;;;;;;;7.66;52.96;102814.19;6181025;23;20078;-68
2023/01/28 01:38:27;;;;;;;15.50;11.02;;;;;;;7.62;52.79;102812.50;6181193;23;20459;-69
2023/01/28 01:40:59;;;;;;;14.70;11.07;;;;;;;7.60;52.79;102819.69;6154961;22;20017;-68
2023/01/28 01:43:46;;;;;;;16.20;12.15;;;;;;;7.58;52.76;102821.53;6180969;23;20031;-69
2023/01/28 01:46:18;;;;;;;16.33;11.25;;;;;;;7.59;52.73;102824.16;6155229;23;20067;-69
2023/01/28 01:48:45;;;;;;;16.63;11.60;;;;;;;7.58;52.93;102827.75;6181224;23;20092;-68
2023/01/28 01:51:17;;;;;;;16.63;12.30;;;;;;;7.59;52.81;102834.00;6180945;23;20067;-67
2023/01/28 01:53:46;;;;;;;14.23;11.15;;;;;;;7.59;52.65;102831.31;6180866;23;20337;-68
2023/01/28 01:56:18;;;;;;;15.27;11.48;;;;;;;7.61;52.73;102829.47;6154910;23;20019;-68
2023/01/28 01:58:49;;;;;;;15.50;11.30;;;;;;;7.61;52.74;102832.16;6155036;22;20049;-68
2023/01/28 02:01:20;;;;;;;16.73;11.70;;;;;;;7.59;52.60;102821.50;6155025;23;20041;-68
2023/01/28 02:03:52;;;;;;;17.15;12.43;;;;;;;7.57;52.77;102830.47;6181091;23;20444;-68
2023/01/28 02:06:20;;;;;;;16.50;12.55;;;;;;;7.55;52.70;102821.63;6181098;23;20082;-68
2023/01/28 02:08:46;;;;;;;17.23;12.68;;;;;;;7.53;52.70;102823.47;6180852;23;20062;-69
2023/01/28 02:11:13;;;;;;;17.15;12.63;;;;;;;7.51;52.43;102826.16;6130306;23;20343;-69
2023/01/28 02:13:48;;;;;;;16.45;12.52;;;;;;;7.51;52.70;102822.63;6154222;23;20083;-69
2023/01/28 02:16:15;;;;;;;15.52;12.07;;;;;;;7.52;52.56;102837.75;6154835;22;20352;-69
2023/01/28 02:18:43;;;;;;;16.08;12.25;;;;;;;7.51;52.43;102836.00;6154791;23;20017;-69
2023/01/28 02:21:30;;;;;;;16.63;13.05;;;;;;;7.47;52.55;102834.31;6154849;22;20116;-68
2023/01/28 02:24:18;;;;;;;14.25;11.38;;;;;;;7.48;52.37;102834.28;6155688;23;20025;-69
2023/01/28 02:27:30;;;;;;;15.98;11.20;;;;;;;7.46;52.52;102829.88;6181167;23;20017;-69
2023/01/28 02:30:21;;;;;;;15.50;11.63;;;;;;;7.46;52.44;102828.09;6032110;23;20015;-68
2023/01/28 02:32:51;;;;;;;14.93;10.98;;;;;;;7.48;52.50;102826.25;6008467;23;20020;-68
2023/01/28 02:35:26;;;;;;;15.35;11.50;;;;;;;7.46;52.64;102821.88;6120553;23;20406;-69
2023/01/28 02:38:02;;;;;;;14.75;11.38;;;;;;;7.44;52.40;102821.91;6130412;23;20017;-68
2023/01/28 02:40:33;;;;;;;15.02;11.38;;;;;;;7.44;52.50;102821.91;6180772;22;20443;-69
2023/01/28 02:42:59;;;;;;;16.40;11.98;;;;;;;7.45;52.40;102825.47;6154007;23;20041;-68
2023/01/28 02:48:22;;;;;;;16.20;11.65;;;;;;;7.48;52.34;102825.38;6154427;23;20325;-69
2023/01/28 02:51:14;;;;;;;14.98;11.63;;;;;;;7.48;52.57;102822.69;6180605;23;20444;-69
2023/01/28 02:53:58;;;;;;;15.30;11.32;;;;;;;7.50;52.41;102829.75;6153464;23;20013;-69
2023/01/28 02:56:31;;;;;;;14.15;11.32;;;;;;;7.52;52.48;102830.59;6130107;23;20021;-70
2023/01/28 03:02:11;;;;;;;14.52;10.85;;;;;;;7.47;52.44;102829.84;6154464;23;20017;-69
2023/01/28 03:04:48;;;;;;;13.40;10.52;;;;;;;7.44;52.35;102826.38;6155001;23;20521;-69
2023/01/28 03:07:18;;;;;;;13.00;10.55;;;;;;;7.44;52.55;102829.06;6155179;23;20021;-68
2023/01/28 03:09:47;;;;;;;12.95;10.55;;;;;;;7.43;52.37;102828.19;6155406;23;20103;-69
2023/01/28 03:38:53;;;;;;;12.32;9.82;;;;;;;7.47;52.31;102837.00;6155576;23;20013;-69
2023/01/28 03:41:23;;;;;;;14.93;10.90;;;;;;;7.46;52.33;102832.56;6155338;22;20045;-68
2023/01/28 03:43:52;;;;;;;13.05;9.98;;;;;;;7.44;52.25;102839.75;6155388;23;20021;-67
2023/01/28 03:46:19;;;;;;;12.35;9.32;;;;;;;7.42;52.36;102839.75;6181958;23;20024;-67
2023/01/28 03:48:45;;;;;;;13.90;10.15;;;;;;;7.42;52.27;102838.88;6155727;23;20048;-68
2023/01/28 03:51:14;;;;;;;11.95;9.38;;;;;;;7.42;52.35;102831.72;6155077;23;20041;-68
2023/01/28 03:53:40;;;;;;;12.55;9.88;;;;;;;7.45;52.31;102830.81;6181020;23;20013;-69
2023/01/28 03:56:09;;;;;;;14.13;9.98;;;;;;;7.46;52.44;102838.78;6154920;23;20325;-69
2023/01/28 03:58:55;;;;;;;13.13;9.70;;;;;;;7.45;52.24;102829.00;6131084;23;20398;-68
2023/01/28 04:01:23;;;;;;;11.50;8.32;;;;;;;7.44;52.15;102839.75;6155604;22;20088;-68
2023/01/28 04:03:50;;;;;;;11.00;9.60;;;;;;;7.42;52.29;102842.41;6154676;23;20025;-68
2023/01/28 04:06:22;;;;;;;12.32;9.63;;;;;;;7.41;52.51;102846.00;6154834;23;20025;-68
2023/01/28 04:08:58;;;;;;;11.90;9.35;;;;;;;7.38;52.38;102847.88;6181976;23;20021;-69
2023/01/28 04:11:30;;;;;;;;;;;;;;;7.34;52.13;102860.44;6182400;23;20025;-69
2023/01/28 04:14:00;;;;;;;11.02;8.00;;;;;;;7.32;52.32;102857.81;6155141;23;19917;-68
2023/01/28 04:16:38;;;;;;;11.43;9.27;;;;;;;7.29;52.13;102855.22;6155058;23;20027;-69
2023/01/28 04:19:05;;;;;;;11.45;9.18;;;;;;;7.27;52.18;102857.06;6155040;23;20018;-68
2023/01/28 04:21:35;;;;;;;12.57;9.70;;;;;;;7.24;52.09;102857.13;6154695;23;20028;-68
2023/01/28 04:24:03;;;;;;;11.75;9.15;;;;;;;7.25;52.18;102860.69;6154440;23;20032;-68
2023/01/28 04:26:30;;;;;;;11.05;8.90;;;;;;;7.25;52.24;102855.34;6155117;23;20024;-68
2023/01/28 04:29:01;;;;;;;11.75;8.95;;;;;;;7.25;52.13;102858.91;6131568;23;20018;-69
2023/01/28 04:31:29;;;;;;;11.88;9.10;;;;;;;7.24;52.00;102857.13;6155119;22;20013;-69
2023/01/28 04:34:16;;;;;;;12.20;8.68;;;;;;;7.26;52.01;102854.44;6154664;23;20521;-68
2023/01/28 04:37:01;;;;;;;10.52;8.40;;;;;;;7.26;52.09;102857.09;6181642;23;20067;-68
2023/01/28 04:39:42;;;;;;;9.07;7.78;;;;;;;7.23;51.85;102846.50;6155025;23;20471;-68
2023/01/28 04:42:28;;;;;;;9.75;7.68;;;;;;;7.19;51.87;102852.81;6186378;23;20025;-68
2023/01/28 04:45:09;;;;;;;8.60;7.20;;;;;;;7.17;51.97;102852.00;6154767;23;20017;-68
2023/01/28 04:47:56;;;;;;;9.45;7.53;;;;;;;7.14;51.78;102854.72;6155538;22;20085;-68
2023/01/28 04:50:36;;;;;;;9.32;7.60;;;;;;;7.14;51.66;102860.06;6181299;23;20014;-67
2023/01/28 04:53:13;;;;;;;8.85;7.47;;;;;;;7.12;51.74;102856.56;6154334;22;20021;-68
2023/01/28 04:56:00;;;;;;;10.05;7.90;;;;;;;7.11;51.64;102860.16;6181355;23;20374;-68
2023/01/28 04:58:30;;;;;;;9.40;7.82;;;;;;;7.10;51.57;102863.75;6155288;23;20474;-68
2023/01/28 05:01:01;;;;;;;11.35;8.13;;;;;;;7.11;51.64;102873.50;6131571;23;20021;-68
2023/01/28 05:03:28;;;;;;;9.98;7.60;;;;;;;7.11;51.63;102870.84;6154947;23;20402;-68
2023/01/28 05:05:57;;;;;;;10.82;8.43;;;;;;;7.13;51.72;102864.53;6155058;23;20017;-68
2023/01/28 05:08:38;;;;;;;10.60;7.63;;;;;;;7.16;51.85;102866.25;6155084;23;20017;-68
2023/01/28 05:11:05;;;;;;;8.63;7.28;;;;;;;7.15;51.62;102857.38;6155024;23;20017;-69
2023/01/28 05:13:32;;;;;;;10.15;7.85;;;;;;;7.14;51.66;102860.06;6181246;23;20336;-69
2023/01/28 05:15:59;;;;;;;8.73;7.50;;;;;;;7.08;51.74;102869.13;6155281;23;20028;-68
2023/01/28 05:18:26;;;;;;;10.30;8.00;;;;;;;7.05;51.51;102865.66;6155088;23;20025;-68
2023/01/28 05:21:03;;;;;;;11.10;7.90;;;;;;;7.00;51.74;102869.31;6155320;23;20045;-68
2023/01/28 05:23:32;;;;;;;8.85;7.57;;;;;;;6.98;51.54;102871.13;6155499;23;20028;-67
2023/01/28 05:25:59;;;;;;;8.57;7.05;;;;;;;6.96;51.49;102864.06;6181631;23;20344;-68
2023/01/28 05:28:26;;;;;;;9.02;7.75;;;;;;;6.94;51.42;102866.78;6154799;23;20028;-68
2023/01/28 05:30:53;;;;;;;9.05;7.63;;;;;;;6.92;51.41;102871.28;6180913;23;20043;-68
2023/01/28 05:33:19;;;;;;;9.30;7.65;;;;;;;6.91;51.36;102855.28;6152617;23;20047;-68
2023/01/28 05:35:48;;;;;;;8.93;7.70;;;;;;;6.91;51.44;102857.97;6152890;23;20452;-69
2023/01/28 05:38:18;;;;;;;9.10;6.88;;;;;;;6.89;51.32;102852.66;6154799;23;20397;-68
2023/01/28 05:40:46;;;;;;;10.20;7.82;;;;;;;6.90;51.20;102850.88;6184190;22;20013;-68
2023/01/28 05:43:14;;;;;;;8.50;7.28;;;;;;;6.91;51.34;102848.16;6181039;23;20092;-68
2023/01/28 05:45:50;;;;;;;9.48;7.72;;;;;;;6.94;51.24;102858.78;6284575;22;20013;-68
2023/01/28 05:48:25;;;;;;;;;;;;;;;6.95;51.49;102863.19;6285172;22;20332;-68
2023/01/28 05:51:10;;;;;;;9.88;7.82;;;;;;;6.98;51.28;102859.56;6180937;23;19923;-68
2023/01/28 05:53:40;;;;;;;9.50;7.82;;;;;;;6.94;51.36;102856.09;6284356;22;20013;-68
2023/01/28 05:56:07;;;;;;;9.07;7.60;;;;;;;6.93;51.39;102864.16;6284278;22;20020;-68
2023/01/28 05:58:35;;;;;;;9.43;7.70;;;;;;;6.91;51.44;102861.50;6284729;22;20447;-68
2023/01/28 06:01:02;;;;;;;8.07;7.00;;;;;;;6.89;51.36;102866.00;6284966;22;20447;-69
2023/01/28 06:03:44;;;;;;;8.98;7.85;;;;;;;6.90;51.34;102872.22;6284769;22;20115;-68
2023/01/28 06:06:11;;;;;;;9.57;7.97;;;;;;;6.88;51.29;102871.38;6284784;22;20017;-69
2023/01/28 06:08:37;;;;;;;9.02;7.72;;;;;;;6.86;51.29;102874.09;6284771;22;20128;-69
2023/01/28 06:11:04;;;;;;;9.07;7.32;;;;;;;6.86;51.35;102879.44;6284664;22;20103;-69
2023/01/28 06:13:33;;;;;;;11.00;7.97;;;;;;;6.85;51.33;102872.34;6284276;22;20025;-70
2023/01/28 06:16:19;;;;;;;9.60;7.53;;;;;;;6.87;51.39;102883.00;6191354;22;20024;-69
2023/01/28 06:19:07;;;;;;;9.65;7.82;;;;;;;6.85;51.39;102877.69;6284955;22;20017;-68
2023/01/28 06:21:34;;;;;;;9.18;7.70;;;;;;;6.86;51.46;102868.75;6284468;22;20075;-70
2023/01/28 06:24:01;;;;;;;9.15;7.47;;;;;;;6.86;51.52;102873.22;6284376;22;20364;-69
2023/01/28 06:26:29;;;;;;;9.90;7.70;;;;;;;6.87;51.40;102869.63;6284501;22;20017;-68
2023/01/28 06:28:55;;;;;;;10.15;7.75;;;;;;;6.87;51.41;102874.97;6284561;22;20017;-68
2023/01/28 06:31:22;;;;;;;10.52;8.43;;;;;;;6.87;51.41;102881.19;6284637;22;20027;-68
2023/01/28 06:33:49;;;;;;;11.50;8.05;;;;;;;6.86;51.48;102875.88;6180622;23;20058;-68
2023/01/28 06:36:15;;;;;;;9.23;7.70;;;;;;;6.84;51.40;102875.94;6180879;23;20444;-69
2023/01/28 06:38:42;;;;;;;8.32;7.40;;;;;;;6.82;51.45;102876.88;6182578;22;20079;-68
2023/01/28 06:41:08;;;;;;;8.25;6.93;;;;;;;6.81;51.76;102878.66;6181942;23;20010;-68
2023/01/28 06:43:35;;;;;;;10.35;8.18;;;;;;;6.80;51.47;102882.25;6155805;23;20082;-69
2023/01/28 06:46:02;;;;;;;9.88;7.47;;;;;;;6.79;51.38;102887.63;6182091;23;20020;-68
2023/01/28 06:48:29;;;;;;;9.30;7.70;;;;;;;6.75;51.36;102880.59;6182057;23;20009;-69
2023/01/28 06:50:56;;;;;;;10.63;8.10;;;;;;;6.75;51.29;102885.94;6181648;23;20013;-68
2023/01/28 06:53:22;;;;;;;9.27;8.00;;;;;;;6.74;51.46;102885.06;6181593;23;20013;-68
2023/01/28 06:55:49;;;;;;;10.52;7.75;;;;;;;6.74;51.49;102895.75;6181891;23;20087;-68
2023/01/28 06:58:16;;;;;;;9.07;7.40;;;;;;;6.75;51.46;102891.28;6181988;23;20374;-68
2023/01/28 07:00:42;;;;;;;9.77;7.82;;;;;;;6.77;51.34;102885.00;6181818;23;20016;-69
2023/01/28 07:03:09;;;;;;;8.80;7.88;;;;;;;6.79;51.29;102890.31;6181605;23;20017;-69
2023/01/28 07:05:36;;;;;;;9.32;8.23;;;;;;;6.79;51.38;102892.97;6182071;23;20023;-68
2023/01/28 07:08:02;;;;;;;9.82;7.70;;;;;;;6.76;51.25;102891.25;6182253;23;20017;-68
2023/01/28 07:10:29;;;;;;;9.70;8.20;;;;;;;6.75;51.27;102902.84;6181967;23;20017;-68
2023/01/28 07:12:56;;;;;;;10.88;8.70;;;;;;;6.73;51.33;102899.34;6182145;23;20371;-69
2023/01/28 07:15:22;;;;;;;10.60;8.18;;;;;;;6.73;51.30;102903.78;6182203;23;20013;-68
2023/01/28 07:17:49;;;;;;;10.00;8.23;;;;;;;6.73;51.24;102907.34;6181744;23;20514;-68
2023/01/28 07:20:16;;;;;;;10.32;8.00;;;;;;;6.69;51.12;102914.53;6182078;23;20348;-68
2023/01/28 07:22:44;;;;;;;11.02;8.52;;;;;;;6.66;51.18;102911.03;6181693;23;20017;-68
2023/01/28 07:25:12;;;;;;;12.43;8.50;;;;;;;6.64;50.98;102913.72;6181673;23;20017;-69
2023/01/28 07:27:39;;;;;;;11.43;8.70;;;;;;;6.64;51.22;102918.19;6182013;23;20017;-68
2023/01/28 07:30:06;;;;;;;10.80;8.20;;;;;;;6.63;51.20;102924.44;6131318;23;20444;-68
2023/01/28 07:32:33;;;;;;;10.77;8.50;;;;;;;6.62;51.13;102928.91;6181830;23;20339;-68
2023/01/28 07:34:59;;;;;;;11.68;8.52;;;;;;;6.59;51.23;102928.97;6181733;23;20017;-67
2023/01/28 07:37:26;;;;;;;11.55;9.02;;;;;;;6.61;51.06;102931.59;6182251;23;20075;-68
2023/01/28 07:39:52;;;;;;;11.07;9.18;;;;;;;6.59;51.13;102933.44;6189913;23;20458;-67
2023/01/28 07:42:19;;;;;;;12.90;9.30;;;;;;;6.55;51.00;102937.94;6181439;23;20074;-67
2023/01/28 07:44:46;;;;;;;11.45;9.55;;;;;;;6.52;50.94;102937.13;6180252;23;20039;-67
2023/01/28 07:47:12;;;;;;;11.98;9.57;;;;;;;6.49;50.92;102938.09;6179798;22;20053;-68
2023/01/28 07:49:39;;;;;;;13.38;9.48;;;;;;;6.47;51.14;102939.03;6153696;23;20451;-69
2023/01/28 07:52:11;;;;;;;16.73;10.73;;;;;;;6.47;51.07;102944.38;6179189;23;20013;-69
2023/01/28 07:54:38;;;;;;;11.70;9.07;;;;;;;6.45;51.17;102936.38;6179658;23;20013;-68
2023/01/28 07:57:08;;;;;;;12.50;9.52;;;;;;;6.46;51.07;102937.25;6179891;23;20051;-69
2023/01/28 07:59:35;;;;;;;11.82;9.20;;;;;;;6.46;51.07;102945.28;6179950;22;20084;-69
2023/01/28 08:02:02;;;;;;;12.02;9.30;;;;;;;6.46;51.00;102947.94;6179313;23;20017;-68
2023/01/28 08:04:28;;;;;;;13.60;10.13;;;;;;;6.44;51.00;102947.97;6179572;23;20073;-68
2023/01/28 08:06:56;;;;;;;12.90;10.13;;;;;;;6.45;50.98;102952.41;6179693;23;20013;-69
2023/01/28 08:09:22;;;;;;;12.38;9.55;;;;;;;6.48;51.08;102954.13;6179710;23;20017;-69
2023/01/28 08:11:54;;;;;;;12.55;9.90;;;;;;;6.49;51.07;102950.53;6179271;23;20017;-68
2023/01/28 08:14:21;;;;;;;13.50;9.43;;;;;;;6.49;50.91;102940.75;6153229;23;20017;-69
2023/01/28 08:16:47;;;;;;;12.07;9.35;;;;;;;6.50;51.03;102944.28;6179514;23;20058;-68
2023/01/28 08:19:14;;;;;;;13.52;10.13;;;;;;;6.49;50.98;102951.44;6179263;23;20352;-66
2023/01/28 08:21:41;;;;;;;14.95;11.23;;;;;;;6.51;50.95;102959.41;6179400;23;20399;-65
2023/01/28 08:24:08;;;;;;;14.85;11.65;;;;;;;6.52;50.89;102962.03;6179609;23;20014;-65
2023/01/28 08:26:35;;;;;;;15.18;11.10;;;;;;;6.54;50.93;102976.25;6177622;22;20053;-68
2023/01/28 08:29:01;;;;;;;15.35;11.50;;;;;;;6.56;50.93;102978.88;6153719;23;20021;-64
2023/01/28 08:31:30;;;;;;;13.15;9.98;;;;;;;6.56;51.08;102976.22;6178677;23;20082;-65
2023/01/28 08:34:05;;;;;;;12.38;9.20;;;;;;;6.59;51.12;102982.38;6154744;23;20021;-65
2023/01/28 08:36:37;;;;;;;15.43;10.75;;;;;;;6.60;50.96;102986.78;6154338;23;20440;-64
2023/01/28 08:39:04;;;;;;;15.05;11.15;;;;;;;6.60;51.16;102986.78;6177589;22;20082;-64
2023/01/28 08:41:31;;;;;;;13.07;9.63;;;;;;;6.61;51.05;102985.88;6129104;22;1099661;-65
2023/01/28 08:43:59;;;;;;;12.88;10.35;;;;;;;6.62;50.94;102984.09;6178196;23;20013;-65
2023/01/28 08:46:25;;;;;;;13.77;10.55;;;;;;;6.62;50.92;102989.44;6151808;23;20128;-65
2023/01/28 08:48:52;;;;;;;13.10;10.43;;;;;;;6.62;50.92;102982.28;6178374;23;20039;-65
2023/01/28 08:51:19;;;;;;;15.07;10.93;;;;;;;6.64;50.90;102984.94;6178534;23;20017;-65
2023/01/28 08:53:45;;;;;;;12.73;9.73;;;;;;;6.64;50.86;102995.63;6178500;22;20025;-65
2023/01/28 08:56:13;;;;;;;14.27;10.10;;;;;;;6.66;50.93;102991.13;6181038;23;20017;-66
2023/01/28 08:58:40;;;;;;;15.60;11.32;;;;;;;6.67;50.80;102984.88;6153438;23;20070;-65
2023/01/28 09:01:07;;;;;;;13.93;10.20;;;;;;;6.68;50.85;102999.97;6180434;23;20469;-66
2023/01/28 09:03:34;;;;;;;18.25;12.57;;;;;;;6.69;50.82;103005.31;6181050;23;20013;-65
2023/01/28 09:06:03;;;;;;;14.20;10.48;;;;;;;6.70;50.79;103008.88;6180588;22;20029;-66
2023/01/28 09:08:30;;;;;;;13.90;10.60;;;;;;;6.70;50.87;103016.88;6180362;23;20020;-66
2023/01/28 09:10:57;;;;;;;16.55;11.88;;;;;;;6.70;50.71;103003.53;6180223;23;20459;-66
2023/01/28 09:13:24;;;;;;;15.85;10.88;;;;;;;6.72;50.71;103015.06;6180051;23;20033;-64
2023/01/28 09:15:51;;;;;;;13.00;10.40;;;;;;;6.73;50.72;103016.81;6178937;23;20447;-66
2023/01/28 09:18:18;;;;;;;14.82;10.52;;;;;;;6.75;50.76;103023.00;6152857;22;20440;-66
2023/01/28 09:20:45;;;;;;;15.02;10.82;;;;;;;6.76;50.70;103018.53;6180761;23;20025;-66
2023/01/28 09:23:11;;;;;;;14.45;10.00;;;;;;;6.77;50.74;103029.19;6180632;23;20430;-66
2023/01/28 09:25:38;;;;;;;13.10;10.02;;;;;;;6.80;50.75;103026.47;6181195;22;20020;-67
2023/01/28 09:28:05;;;;;;;13.95;9.68;;;;;;;6.83;50.62;103026.41;6181132;23;20017;-66
2023/01/28 09:30:33;;;;;;;14.60;10.60;;;;;;;6.84;50.78;103024.63;6180893;23;20040;-67
2023/01/28 09:33:03;;;;;;;14.82;10.48;;;;;;;6.83;50.65;103015.72;6181013;23;20369;-66
2023/01/28 09:35:29;;;;;;;14.85;10.32;;;;;;;6.83;50.67;103028.19;6180354;23;20021;-66
2023/01/28 09:37:57;;;;;;;14.82;10.73;;;;;;;6.78;50.59;103025.63;6180676;23;20382;-66
2023/01/28 09:40:50;;;;;;;14.25;10.45;;;;;;;6.75;50.53;103032.81;6179869;23;20040;-67
2023/01/28 09:43:41;;;;;;;13.95;10.10;;;;;;;6.74;50.40;103023.91;6180767;23;20074;-67
2023/01/28 09:46:12;;;;;;;13.75;10.15;;;;;;;6.75;50.49;103030.16;6178433;22;20021;-67
2023/01/28 09:49:01;;;;;;;13.85;10.90;;;;;;;6.75;50.54;103035.47;6179691;23;20092;-66
2023/01/28 09:51:30;;;;;;;15.55;10.80;;;;;;;6.77;50.53;103031.00;6181122;23;20017;-66
2023/01/28 09:54:03;;;;;;;14.70;10.23;;;;;;;6.78;50.45;103035.41;6180690;23;20096;-66
2023/01/28 09:56:40;;;;;;;14.23;10.45;;;;;;;6.78;50.45;103048.78;6180610;23;20021;-66
2023/01/28 09:59:20;;;;;;;13.88;9.93;;;;;;;6.74;50.37;103045.28;6179500;23;20021;-66
2023/01/28 10:01:57;;;;;;;13.73;9.88;;;;;;;6.75;50.45;103051.50;6180816;23;20340;-66
2023/01/28 10:04:42;;;;;;;14.88;10.75;;;;;;;6.72;50.36;103044.44;6180687;23;20092;-66
2023/01/28 10:07:21;;;;;;;14.05;10.63;;;;;;;6.72;50.35;103057.78;6180105;23;20386;-66
2023/01/28 10:10:00;;;;;;;13.68;10.60;;;;;;;6.69;50.37;103058.72;6179764;23;20062;-66
2023/01/28 10:12:49;;;;;;;14.25;9.85;;;;;;;6.69;50.43;103052.50;6179467;23;20088;-67
2023/01/28 10:15:52;;;;;;;13.70;9.90;;;;;;;6.65;50.21;103062.34;6179195;23;20028;-66
2023/01/28 10:18:34;;;;;;;13.93;10.60;;;;;;;6.65;50.33;103062.34;6179168;23;20045;-66
2023/01/28 10:21:11;;;;;;;16.00;10.80;;;;;;;6.65;50.23;103058.78;6154358;23;20017;-67
2023/01/28 10:23:47;;;;;;;13.45;10.13;;;;;;;6.66;50.23;103063.22;6180751;23;20017;-66
2023/01/28 10:26:21;;;;;;;14.20;10.70;;;;;;;6.68;50.35;103064.94;6180843;23;20024;-66
2023/01/28 10:28:55;;;;;;;14.35;10.48;;;;;;;6.70;50.33;103064.94;6153862;23;20025;-67
2023/01/28 10:31:30;;;;;;;15.73;11.35;;;;;;;6.72;50.89;103060.47;6179599;22;20025;-66
2023/01/28 10:33:57;;;;;;;15.48;11.40;;;;;;;6.75;50.48;103059.50;6153907;23;20017;-66
2023/01/28 10:36:24;;;;;;;13.43;10.35;;;;;;;6.77;50.41;103057.69;6179920;23;20021;-67
2023/01/28 10:38:50;;;;;;;15.10;10.68;;;;;;;6.76;50.48;103053.25;6179810;23;20426;-67
2023/01/28 10:41:21;;;;;;;15.63;11.52;;;;;;;6.76;50.27;103050.59;6180053;23;20017;-66
2023/01/28 10:43:49;;;;;;;13.52;10.00;;;;;;;6.75;50.37;103060.41;6179636;23;20447;-66
2023/01/28 10:46:28;;;;;;;13.20;10.60;;;;;;;6.74;50.35;103055.97;6180216;23;20021;-67
2023/01/28 10:49:13;;;;;;;13.93;10.60;;;;;;;6.75;50.38;103052.38;6180168;23;20101;-67
2023/01/28 10:51:42;;;;;;;12.18;9.90;;;;;;;6.75;50.37;103052.38;6179580;23;20017;-66
2023/01/28 10:54:19;;;;;;;12.45;9.88;;;;;;;6.75;50.43;103057.72;6179778;23;20013;-67
2023/01/28 10:56:47;;;;;;;12.63;10.27;;;;;;;6.73;50.40;103046.19;6180018;23;20053;-66
2023/01/28 10:59:26;;;;;;;11.93;9.98;;;;;;;6.71;50.20;103056.03;6180441;23;20024;-67
2023/01/28 11:01:58;;;;;;;14.52;10.00;;;;;;;6.71;50.43;103040.00;6180532;23;20108;-67
2023/01/28 11:04:30;;;;;;;12.02;9.95;;;;;;;6.71;50.37;103050.69;6180754;23;20028;-66
2023/01/28 11:07:03;;;;;;;11.60;9.75;;;;;;;6.71;50.43;103050.69;6180477;23;20092;-67
2023/01/28 11:09:37;;;;;;;12.45;9.20;;;;;;;6.72;50.43;103049.78;6180741;23;20344;-66
2023/01/28 11:12:12;;;;;;;11.50;8.90;;;;;;;6.72;50.47;103041.75;6180153;23;20040;-66
2023/01/28 11:14:48;;;;;;;;;;;;;;;6.74;50.57;103039.94;6180124;22;20443;-66
2023/01/28 11:17:17;;;;;;;11.10;9.05;;;;;;;6.76;50.37;103032.78;6179261;23;19922;-66
2023/01/28 11:19:44;;;;;;;10.77;8.40;;;;;;;6.77;50.56;103029.19;6179063;23;20017;-66
2023/01/28 11:22:20;;;;;;;10.82;8.68;;;;;;;6.78;50.36;103022.06;6179207;23;20096;-66
2023/01/28 11:24:47;;;;;;;9.30;8.02;;;;;;;6.81;50.37;103019.34;6154064;23;20024;-66
2023/01/28 11:27:27;;;;;;;11.23;9.13;;;;;;;6.84;50.43;103014.81;6181062;23;20017;-66
2023/01/28 11:29:57;;;;;;;10.57;8.85;;;;;;;6.89;50.41;103009.38;6180749;23;20466;-65
2023/01/28 11:32:25;;;;;;;11.77;9.10;;;;;;;6.95;50.24;103006.56;6180468;23;20033;-66
2023/01/28 11:34:56;;;;;;;13.23;9.57;;;;;;;7.01;50.24;103001.97;6180016;23;20017;-66
2023/01/28 11:37:25;;;;;;;11.50;9.02;;;;;;;7.07;50.33;103005.41;6180147;23;20391;-65
2023/01/28 11:40:01;;;;;;;11.85;8.75;;;;;;;7.11;50.42;102996.41;6180214;23;20092;-66
2023/01/28 11:42:29;;;;;;;11.82;9.40;;;;;;;7.16;50.16;102997.19;6180070;23;20024;-66
2023/01/28 11:44:56;;;;;;;11.38;9.10;;;;;;;7.19;50.13;102999.78;6180558;23;20320;-65
2023/01/28 11:47:52;;;;;;;10.70;8.73;;;;;;;7.19;50.07;102998.00;6180792;23;20467;-68
2023/01/28 11:50:25;;;;;;;9.52;8.15;;;;;;;7.25;50.06;102991.63;6180696;22;20090;-67
2023/01/28 11:53:04;;;;;;;9.48;8.00;;;;;;;7.30;49.94;102974.59;6182115;23;20016;-67
2023/01/28 11:55:50;;;;;;;11.02;8.00;;;;;;;7.36;49.78;102970.88;6181621;23;20013;-67
2023/01/28 11:58:45;;;;;;;9.65;8.23;;;;;;;7.39;49.85;102954.78;6181883;23;20013;-67
2023/01/28 12:01:38;;;;;;;10.20;8.57;;;;;;;7.43;49.77;102945.78;6181844;23;20075;-67
2023/01/28 12:04:16;;;;;;;9.93;8.50;;;;;;;7.46;49.60;102934.16;6181637;23;20024;-67
2023/01/28 12:06:46;;;;;;;9.63;8.25;;;;;;;7.46;49.71;102915.44;6181827;22;20053;-66
2023/01/28 12:09:18;;;;;;;11.27;9.02;;;;;;;7.46;49.66;102904.75;6181031;23;20062;-67
2023/01/28 12:12:10;;;;;;;9.82;8.05;;;;;;;7.48;49.66;102900.22;6181118;23;20018;-64
2023/01/28 12:15:14;;;;;;;9.73;8.23;;;;;;;7.49;49.54;102918.91;6181401;23;20017;-65
2023/01/28 12:18:05;;;;;;;10.10;8.68;;;;;;;7.53;49.50;102912.56;6181961;23;20017;-66